createdAt,value
2023-05-25T00:02:06.839Z,97703.72
2023-05-25T00:04:35.540Z,97712.19
2023-05-25T00:07:04.374Z,97707.38
2023-05-25T00:09:32.530Z,97711.19
2023-05-25T00:12:00.992Z,97709.91
2023-05-25T00:14:30.968Z,97717.59
2023-05-25T00:16:59.267Z,97731.13
2023-05-25T00:19:28.926Z,97729.72
2023-05-25T00:21:57.105Z,97727.88
2023-05-25T00:24:25.200Z,97726.22
2023-05-25T00:26:53.355Z,97729.34
2023-05-25T00:29:21.481Z,97723.00
2023-05-25T00:31:50.950Z,97722.59
2023-05-25T00:34:20.087Z,97720.97
2023-05-25T00:36:50.027Z,97725.84
2023-05-25T00:39:19.129Z,97727.22
2023-05-25T00:41:48.352Z,97726.53
2023-05-25T00:44:21.580Z,97724.97
2023-05-25T00:46:51.711Z,97721.81
2023-05-25T00:49:21.399Z,97717.59
2023-05-25T00:51:53.625Z,97723.25
2023-05-25T00:54:22.022Z,97730.41
2023-05-25T00:56:53.474Z,97735.56
2023-05-25T00:59:26.919Z,97734.38
2023-05-25T01:01:56.127Z,97728.06
2023-05-25T01:04:28.502Z,97730.94
2023-05-25T01:06:58.936Z,97731.44
2023-05-25T01:09:29.174Z,97731.63
2023-05-25T01:11:58.029Z,97724.84
2023-05-25T01:14:26.826Z,97728.66
2023-05-25T01:16:56.463Z,97727.97
2023-05-25T01:19:24.613Z,97729.84
2023-05-25T01:21:58.338Z,97732.38
2023-05-25T01:24:32.536Z,97722.94
2023-05-25T01:27:06.485Z,97728.66
2023-05-25T01:29:35.753Z,97732.22
2023-05-25T01:32:05.066Z,97737.50
2023-05-25T01:34:35.808Z,97730.63
2023-05-25T01:37:05.783Z,97735.63
2023-05-25T01:39:37.653Z,97729.69
2023-05-25T01:42:06.110Z,97730.78
2023-05-25T01:44:36.097Z,97729.84
2023-05-25T01:47:07.277Z,97727.88
2023-05-25T01:49:44.412Z,97728.00
2023-05-25T01:52:20.672Z,97730.63
2023-05-25T01:54:53.625Z,97722.69
2023-05-25T01:57:22.246Z,97721.94
2023-05-25T01:59:50.991Z,97721.00
2023-05-25T02:02:20.062Z,97718.97
2023-05-25T02:04:48.692Z,97722.22
2023-05-25T02:07:18.900Z,97732.69
2023-05-25T02:09:47.067Z,97731.19
2023-05-25T02:12:15.242Z,97729.63
2023-05-25T02:14:43.550Z,97726.13
2023-05-25T02:17:12.936Z,97727.09
2023-05-25T02:19:42.262Z,97711.81
2023-05-25T02:22:10.467Z,97719.63
2023-05-25T02:24:39.957Z,97721.59
2023-05-25T02:27:08.455Z,97711.28
2023-05-25T02:29:36.604Z,97721.09
2023-05-25T02:32:04.912Z,97714.94
2023-05-25T02:34:33.246Z,97725.31
2023-05-25T02:37:01.938Z,97720.94
2023-05-25T02:39:30.169Z,97722.22
2023-05-25T02:42:01.411Z,97722.44
2023-05-25T02:44:29.699Z,97738.75
2023-05-25T02:46:57.913Z,97732.94
2023-05-25T02:49:26.083Z,97733.16
2023-05-25T02:51:54.342Z,97747.56
2023-05-25T02:54:22.575Z,97734.91
2023-05-25T02:56:50.704Z,97745.94
2023-05-25T02:59:21.631Z,97741.75
2023-05-25T03:01:49.808Z,97744.47
2023-05-25T03:04:19.212Z,97745.19
2023-05-25T03:06:47.602Z,97755.66
2023-05-25T03:09:19.619Z,97760.59
2023-05-25T03:11:50.469Z,97762.50
2023-05-25T03:14:22.894Z,97764.88
2023-05-25T03:16:57.294Z,97764.63
2023-05-25T03:19:27.498Z,97766.28
2023-05-25T03:21:55.636Z,97773.19
2023-05-25T03:24:23.869Z,97776.13
2023-05-25T03:26:52.023Z,97781.63
2023-05-25T03:29:20.268Z,97781.06
2023-05-25T03:31:49.968Z,97788.97
2023-05-25T03:34:19.672Z,97789.34
2023-05-25T03:36:47.829Z,97793.84
2023-05-25T03:39:18.286Z,97790.56
2023-05-25T03:41:46.555Z,97794.34
2023-05-25T03:44:15.308Z,97796.38
2023-05-25T03:46:44.847Z,97803.28
2023-05-25T03:49:16.080Z,97800.44
2023-05-25T03:51:45.676Z,97806.50
2023-05-25T03:54:14.734Z,97811.38
2023-05-25T03:56:42.889Z,97805.47
2023-05-25T03:59:11.104Z,97807.91
2023-05-25T04:01:40.141Z,97811.72
2023-05-25T04:04:08.497Z,97823.09
2023-05-25T04:06:40.172Z,97816.81
2023-05-25T04:09:08.915Z,97821.03
2023-05-25T04:11:37.126Z,97825.69
2023-05-25T04:14:05.525Z,97835.16
2023-05-25T04:16:37.077Z,97831.59
2023-05-25T04:19:06.156Z,97834.59
2023-05-25T04:21:34.588Z,97834.91
2023-05-25T04:24:04.625Z,97829.06
2023-05-25T04:26:32.882Z,97836.56
2023-05-25T04:29:03.111Z,97837.94
2023-05-25T04:31:57.022Z,97836.91
2023-05-25T04:34:36.534Z,97826.69
2023-05-25T04:37:15.430Z,97836.13
2023-05-25T04:39:45.076Z,97833.44
2023-05-25T04:42:13.453Z,97836.28
2023-05-25T04:44:41.769Z,97837.16
2023-05-25T04:47:10.806Z,97846.34
2023-05-25T04:49:40.041Z,97844.03
2023-05-25T04:52:09.787Z,97841.44
2023-05-25T04:54:39.459Z,97846.59
2023-05-25T04:57:10.989Z,97843.81
2023-05-25T04:59:39.178Z,97849.47
2023-05-25T05:02:08.430Z,97846.66
2023-05-25T05:04:37.341Z,97844.38
2023-05-25T05:07:07.987Z,97845.69
2023-05-25T05:09:36.478Z,97844.97
2023-05-25T05:12:06.403Z,97848.41
2023-05-25T05:14:41.236Z,97852.50
2023-05-25T05:17:09.774Z,97847.25
2023-05-25T05:19:37.931Z,97856.28
2023-05-25T05:22:09.743Z,97850.28
2023-05-25T05:24:39.430Z,97849.19
2023-05-25T05:27:07.682Z,97849.88
2023-05-25T05:29:46.131Z,97849.13
2023-05-25T05:32:14.414Z,97852.06
2023-05-25T05:34:42.665Z,97850.97
2023-05-25T05:37:21.742Z,97846.38
2023-05-25T05:39:52.495Z,97847.63
2023-05-25T05:42:20.732Z,97844.94
2023-05-25T05:44:50.506Z,97860.53
2023-05-25T05:47:18.970Z,97854.72
2023-05-25T05:49:47.477Z,97853.13
2023-05-25T05:52:15.892Z,97853.03
2023-05-25T05:54:44.076Z,97853.88
2023-05-25T05:57:14.725Z,97853.13
2023-05-25T05:59:43.203Z,97856.25
2023-05-25T06:02:12.933Z,97859.25
2023-05-25T06:04:41.538Z,97859.66
2023-05-25T06:07:09.826Z,97851.00
2023-05-25T06:09:38.075Z,97851.97
2023-05-25T06:12:07.021Z,97859.88
2023-05-25T06:14:35.571Z,97856.88
2023-05-25T06:17:05.589Z,97855.47
2023-05-25T06:19:35.308Z,97852.84
2023-05-25T06:22:04.871Z,97859.78
2023-05-25T06:24:33.019Z,97859.84
2023-05-25T06:27:03.296Z,97860.53
2023-05-25T06:29:31.670Z,97853.81
2023-05-25T06:32:00.608Z,97857.50
2023-05-25T06:34:28.946Z,97855.28
2023-05-25T06:36:58.686Z,97863.50
2023-05-25T06:39:27.490Z,97864.94
2023-05-25T06:41:55.729Z,97867.53
2023-05-25T06:44:30.128Z,97867.88
2023-05-25T06:47:02.420Z,97871.91
2023-05-25T06:49:30.544Z,97867.88
2023-05-25T06:52:00.101Z,97866.88
2023-05-25T06:54:28.330Z,97866.03
2023-05-25T06:56:56.838Z,97875.44
2023-05-25T06:59:25.132Z,97871.75
2023-05-25T07:01:54.117Z,97868.34
2023-05-25T07:04:22.672Z,97870.50
2023-05-25T07:06:51.993Z,97874.59
2023-05-25T07:09:21.564Z,97876.63
2023-05-25T07:11:49.749Z,97877.88
2023-05-25T07:14:18.686Z,97873.19
2023-05-25T07:16:46.836Z,97873.63
2023-05-25T07:19:15.212Z,97876.38
2023-05-25T07:21:43.375Z,97869.81
2023-05-25T07:24:11.594Z,97871.72
2023-05-25T07:26:41.143Z,97872.16
2023-05-25T07:29:09.418Z,97877.63
2023-05-25T07:31:37.685Z,97875.78
2023-05-25T07:34:05.945Z,97879.91
2023-05-25T07:36:34.132Z,97875.66
2023-05-25T07:39:02.650Z,97880.34
2023-05-25T07:41:30.904Z,97875.47
2023-05-25T07:44:00.656Z,97879.03
2023-05-25T07:46:28.905Z,97881.47
2023-05-25T07:48:58.389Z,97880.91
2023-05-25T07:51:27.143Z,97881.75
2023-05-25T07:53:56.579Z,97872.97
2023-05-25T07:56:24.888Z,97872.44
2023-05-25T07:58:53.081Z,97870.53
2023-05-25T08:01:24.899Z,97881.63
2023-05-25T08:03:54.562Z,97879.34
2023-05-25T08:06:23.304Z,97882.88
2023-05-25T08:08:52.011Z,97869.66
2023-05-25T08:11:24.545Z,97879.19
2023-05-25T08:13:52.701Z,97874.69
2023-05-25T08:16:22.381Z,97883.25
2023-05-25T08:18:50.586Z,97872.56
2023-05-25T08:21:18.954Z,97877.41
2023-05-25T08:23:47.107Z,97871.44
2023-05-25T08:26:34.203Z,97871.66
2023-05-25T08:29:04.206Z,97872.00
2023-05-25T08:31:34.242Z,97877.56
2023-05-25T08:34:02.845Z,97877.56
2023-05-25T08:36:34.135Z,97872.84
2023-05-25T08:39:02.340Z,97879.69
2023-05-25T08:41:30.874Z,97872.63
2023-05-25T08:43:59.113Z,97870.00
2023-05-25T08:46:31.552Z,97875.31
2023-05-25T08:49:06.345Z,97876.16
2023-05-25T08:51:38.181Z,97874.22
2023-05-25T08:54:11.313Z,97875.47
2023-05-25T08:56:43.401Z,97873.59
2023-05-25T08:59:19.211Z,97872.94
2023-05-25T09:01:49.166Z,97873.06
2023-05-25T09:04:19.727Z,97879.22
2023-05-25T09:06:57.325Z,97879.66
2023-05-25T09:09:30.568Z,97878.97
2023-05-25T09:11:58.979Z,97872.66
2023-05-25T09:14:27.375Z,97875.56
2023-05-25T09:16:55.652Z,97870.53
2023-05-25T09:19:25.210Z,97876.06
2023-05-25T09:22:03.016Z,97871.03
2023-05-25T09:24:44.094Z,97864.44
2023-05-25T09:27:13.190Z,97862.53
2023-05-25T09:29:41.390Z,97870.59
2023-05-25T09:32:09.653Z,97872.41
2023-05-25T09:34:39.160Z,97872.16
2023-05-25T09:37:14.986Z,97864.28
2023-05-25T09:39:44.039Z,97866.56
2023-05-25T09:42:12.780Z,97868.56
2023-05-25T09:44:42.739Z,97866.53
2023-05-25T09:47:11.172Z,97869.19
2023-05-25T09:49:40.738Z,97868.47
2023-05-25T09:52:09.142Z,97868.97
2023-05-25T09:54:38.421Z,97869.56
2023-05-25T09:57:07.657Z,97866.53
2023-05-25T09:59:35.792Z,97868.94
2023-05-25T10:02:04.107Z,97864.00
2023-05-25T10:04:32.383Z,97867.94
2023-05-25T10:07:02.402Z,97868.13
2023-05-25T10:09:31.422Z,97873.75
2023-05-25T10:12:01.430Z,97868.75
2023-05-25T10:14:31.228Z,97864.19
2023-05-25T10:17:00.663Z,97869.75
2023-05-25T10:19:33.106Z,97867.94
2023-05-25T10:22:08.246Z,97862.16
2023-05-25T10:24:40.112Z,97864.88
2023-05-25T10:27:25.642Z,97860.06
2023-05-25T10:29:57.285Z,97860.44
2023-05-25T10:32:25.671Z,97860.78
2023-05-25T10:34:54.055Z,97856.44
2023-05-25T10:37:24.691Z,97859.09
2023-05-25T10:39:53.557Z,97855.84
2023-05-25T10:42:22.140Z,97847.75
2023-05-25T10:44:50.980Z,97856.75
2023-05-25T10:47:19.648Z,97852.16
2023-05-25T10:49:55.073Z,97850.41
2023-05-25T10:52:28.824Z,97854.44
2023-05-25T10:54:58.101Z,97843.66
2023-05-25T10:57:26.854Z,97852.25
2023-05-25T11:00:00.039Z,97844.97
2023-05-25T11:02:32.616Z,97848.53
2023-05-25T11:05:38.203Z,97843.66
2023-05-25T11:08:09.158Z,97837.47
2023-05-25T11:10:45.074Z,97836.81
2023-05-25T11:13:34.341Z,97832.31
2023-05-25T11:16:20.030Z,97839.31
2023-05-25T11:18:52.810Z,97830.91
2023-05-25T11:21:52.548Z,97817.31
2023-05-25T11:24:22.051Z,97815.16
2023-05-25T11:26:57.923Z,97819.31
2023-05-25T11:29:27.357Z,97811.47
2023-05-25T11:31:56.737Z,97820.00
2023-05-25T11:34:25.991Z,97808.72
2023-05-25T11:37:01.801Z,97807.91
2023-05-25T11:39:32.150Z,97813.56
2023-05-25T11:42:04.346Z,97812.53
2023-05-25T11:44:33.881Z,97810.69
2023-05-25T11:47:05.034Z,97799.50
2023-05-25T11:49:33.265Z,97799.19
2023-05-25T11:52:06.271Z,97786.84
2023-05-25T11:54:36.546Z,97780.16
2023-05-25T11:57:05.059Z,97775.38
2023-05-25T11:59:33.678Z,97778.19
2023-05-25T12:02:02.894Z,97779.44
2023-05-25T12:04:32.889Z,97770.16
2023-05-25T12:07:05.071Z,97766.34
2023-05-25T12:09:36.756Z,97759.16
2023-05-25T12:12:05.831Z,97761.00
2023-05-25T12:14:36.263Z,97756.31
2023-05-25T12:17:04.768Z,97759.28
2023-05-25T12:19:33.399Z,97756.78
2023-05-25T12:22:01.711Z,97748.63
2023-05-25T12:24:29.922Z,97740.88
2023-05-25T12:27:01.809Z,97750.19
2023-05-25T12:29:30.309Z,97743.38
2023-05-25T12:32:03.466Z,97742.59
2023-05-25T12:34:31.655Z,97743.69
2023-05-25T12:37:00.174Z,97736.28
2023-05-25T12:39:38.964Z,97744.16
2023-05-25T12:42:14.936Z,97742.41
2023-05-25T12:44:43.894Z,97745.81
2023-05-25T12:47:14.064Z,97738.75
2023-05-25T12:49:43.790Z,97732.53
2023-05-25T12:52:13.056Z,97733.59
2023-05-25T12:54:44.130Z,97725.25
2023-05-25T12:57:15.679Z,97726.63
2023-05-25T12:59:45.389Z,97726.91
2023-05-25T13:02:14.681Z,97714.81
2023-05-25T13:04:44.615Z,97709.47
2023-05-25T13:07:12.868Z,97707.91
2023-05-25T13:09:41.090Z,97704.31
2023-05-25T13:12:09.921Z,97712.81
2023-05-25T13:14:39.470Z,97695.03
2023-05-25T13:17:07.914Z,97704.41
2023-05-25T13:19:36.144Z,97696.28
2023-05-25T13:22:05.201Z,97693.03
2023-05-25T13:24:33.574Z,97694.94
2023-05-25T13:27:01.710Z,97685.41
2023-05-25T13:29:29.911Z,97684.75
2023-05-25T13:31:59.528Z,97687.50
2023-05-25T13:34:27.858Z,97678.31
2023-05-25T13:36:56.574Z,97672.34
2023-05-25T13:39:24.822Z,97666.34
2023-05-25T13:41:52.960Z,97666.47
2023-05-25T13:44:21.107Z,97671.09
2023-05-25T13:46:49.516Z,97678.53
2023-05-25T13:49:19.770Z,97667.72
2023-05-25T13:51:48.081Z,97658.13
2023-05-25T13:54:16.366Z,97656.03
2023-05-25T13:56:44.506Z,97660.63
2023-05-25T13:59:13.063Z,97659.66
2023-05-25T14:01:41.956Z,97658.72
2023-05-25T14:04:11.785Z,97643.66
2023-05-25T14:06:41.483Z,97650.91
2023-05-25T14:09:12.095Z,97648.59
2023-05-25T14:11:41.057Z,97649.00
2023-05-25T14:14:19.472Z,97640.00
2023-05-25T14:16:55.532Z,97644.44
2023-05-25T14:19:23.716Z,97642.81
2023-05-25T14:22:08.021Z,97646.19
2023-05-25T14:24:39.710Z,97641.16
2023-05-25T14:27:08.109Z,97641.50
2023-05-25T14:29:36.321Z,97634.44
2023-05-25T14:32:04.930Z,97635.00
2023-05-25T14:34:33.122Z,97633.59
2023-05-25T14:37:02.941Z,97636.53
2023-05-25T14:39:31.129Z,97624.72
2023-05-25T14:41:59.300Z,97629.84
2023-05-25T14:44:27.550Z,97623.00
2023-05-25T14:46:56.020Z,97624.59
2023-05-25T14:49:25.095Z,97624.78
2023-05-25T14:51:53.388Z,97613.94
2023-05-25T14:54:22.903Z,97616.88
2023-05-25T14:56:51.122Z,97614.78
2023-05-25T14:59:19.256Z,97610.25
2023-05-25T15:01:47.668Z,97609.56
2023-05-25T15:04:15.941Z,97610.63
2023-05-25T15:06:44.114Z,97603.06
2023-05-25T15:09:13.341Z,97600.16
2023-05-25T15:11:42.869Z,97600.31
2023-05-25T15:14:11.017Z,97595.16
2023-05-25T15:16:39.296Z,97600.00
2023-05-25T15:19:09.971Z,97602.50
2023-05-25T15:21:40.017Z,97592.34
2023-05-25T15:24:08.308Z,97589.66
2023-05-25T15:26:36.416Z,97590.97
2023-05-25T15:29:06.013Z,97593.19
2023-05-25T15:31:34.259Z,97588.13
2023-05-25T15:34:02.454Z,97583.72
2023-05-25T15:36:31.365Z,97587.75
2023-05-25T15:38:59.784Z,97582.69
2023-05-25T15:41:28.035Z,97591.78
2023-05-25T15:44:01.032Z,97584.88
2023-05-25T15:46:30.802Z,97583.09
2023-05-25T15:48:58.976Z,97579.53
2023-05-25T15:51:27.151Z,97578.59
2023-05-25T15:53:55.421Z,97575.59
2023-05-25T15:56:23.807Z,97569.19
2023-05-25T15:58:52.695Z,97575.97
2023-05-25T16:01:20.985Z,97577.06
2023-05-25T16:03:50.587Z,97573.56
2023-05-25T16:06:18.816Z,97569.09
2023-05-25T16:08:47.082Z,97574.59
2023-05-25T16:11:15.295Z,97578.09
2023-05-25T16:13:43.444Z,97565.97
2023-05-25T16:16:11.664Z,97568.72
2023-05-25T16:18:39.887Z,97563.47
2023-05-25T16:21:09.424Z,97563.63
2023-05-25T16:23:37.660Z,97556.94
2023-05-25T16:26:06.075Z,97561.50
2023-05-25T16:28:34.239Z,97566.00
2023-05-25T16:31:02.393Z,97567.44
2023-05-25T16:33:30.568Z,97568.00
2023-05-25T16:35:58.758Z,97577.50
2023-05-25T16:38:28.327Z,97577.56
2023-05-25T16:40:56.589Z,97585.16
2023-05-25T16:43:25.966Z,97580.72
2023-05-25T16:45:54.205Z,97583.81
2023-05-25T16:48:23.242Z,97580.06
2023-05-25T16:50:51.528Z,97573.75
2023-05-25T16:53:19.726Z,97578.00
2023-05-25T16:55:49.390Z,97586.09
2023-05-25T16:58:17.601Z,97590.41
2023-05-25T17:00:45.732Z,97585.34
2023-05-25T17:03:14.015Z,97596.47
2023-05-25T17:05:42.556Z,97597.06
2023-05-25T17:08:10.807Z,97598.94
2023-05-25T17:10:38.916Z,97598.00
2023-05-25T17:13:08.450Z,97607.50
2023-05-25T17:15:36.700Z,97604.75
2023-05-25T17:18:05.050Z,97599.34
2023-05-25T17:20:33.247Z,97608.19
2023-05-25T17:23:01.440Z,97606.03
2023-05-25T17:25:29.675Z,97602.38
2023-05-25T17:27:57.837Z,97609.69
2023-05-25T17:30:27.588Z,97612.53
2023-05-25T17:33:01.446Z,97611.00
2023-05-25T17:35:30.193Z,97614.56
2023-05-25T17:37:58.419Z,97620.88
2023-05-25T17:40:26.667Z,97623.00
2023-05-25T17:42:54.859Z,97621.59
2023-05-25T17:45:23.122Z,97623.06
2023-05-25T17:47:52.892Z,97612.34
2023-05-25T17:50:21.082Z,97630.19
2023-05-25T17:52:49.393Z,97628.91
2023-05-25T17:55:17.956Z,97629.28
2023-05-25T17:57:46.703Z,97634.00
2023-05-25T18:00:20.203Z,97638.78
2023-05-25T18:02:49.706Z,97643.63
2023-05-25T18:05:20.435Z,97652.22
2023-05-25T18:07:49.177Z,97647.81
2023-05-25T18:10:17.944Z,97657.63
2023-05-25T18:12:49.676Z,97661.22
2023-05-25T18:15:18.849Z,97660.00
2023-05-25T18:17:47.887Z,97666.38
2023-05-25T18:20:17.362Z,97673.81
2023-05-25T18:22:47.789Z,97675.97
2023-05-25T18:25:16.874Z,97669.94
2023-05-25T18:27:48.441Z,97684.59
2023-05-25T18:30:17.305Z,97681.50
2023-05-25T18:32:45.533Z,97684.63
2023-05-25T18:35:13.773Z,97690.66
2023-05-25T18:37:42.029Z,97704.09
2023-05-25T18:40:12.968Z,97701.84
2023-05-25T18:42:41.246Z,97714.84
2023-05-25T18:45:10.200Z,97713.53
2023-05-25T18:47:38.563Z,97713.09
2023-05-25T18:50:07.645Z,97712.78
2023-05-25T18:52:35.781Z,97727.31
2023-05-25T18:55:04.161Z,97721.19
2023-05-25T18:57:34.088Z,97732.53
2023-05-25T19:00:02.619Z,97737.19
2023-05-25T19:02:31.770Z,97732.34
2023-05-25T19:05:00.002Z,97731.81
2023-05-25T19:07:28.250Z,97742.53
2023-05-25T19:09:56.619Z,97746.88
2023-05-25T19:12:24.802Z,97742.34
2023-05-25T19:14:54.363Z,97752.34
2023-05-25T19:17:22.589Z,97754.06
2023-05-25T19:19:50.859Z,97770.09
2023-05-25T19:22:19.096Z,97771.00
2023-05-25T19:24:48.873Z,97777.31
2023-05-25T19:27:22.474Z,97783.63
2023-05-25T19:29:50.940Z,97786.78
2023-05-25T19:32:20.748Z,97792.84
2023-05-25T19:34:49.156Z,97792.66
2023-05-25T19:37:17.797Z,97800.59
2023-05-25T19:39:46.338Z,97806.72
2023-05-25T19:42:14.858Z,97794.78
2023-05-25T19:44:45.446Z,97805.56
2023-05-25T19:47:13.973Z,97808.63
2023-05-25T19:49:44.123Z,97804.31
2023-05-25T19:52:12.551Z,97814.34
2023-05-25T19:54:41.070Z,97815.50
2023-05-25T19:57:09.533Z,97822.44
2023-05-25T19:59:38.605Z,97813.09
2023-05-25T20:02:07.362Z,97812.31
2023-05-25T20:04:35.888Z,97816.13
2023-05-25T20:07:06.058Z,97817.88
2023-05-25T20:09:35.731Z,97824.00
2023-05-25T20:12:04.189Z,97818.72
2023-05-25T20:14:33.787Z,97823.72
2023-05-25T20:17:01.997Z,97824.22
2023-05-25T20:19:30.298Z,97830.97
2023-05-25T20:22:00.252Z,97824.91
2023-05-25T20:24:29.849Z,97826.97
2023-05-25T20:26:58.037Z,97827.31
2023-05-25T20:29:26.549Z,97839.34
2023-05-25T20:31:54.799Z,97841.19
2023-05-25T20:34:23.021Z,97840.25
2023-05-25T20:36:51.194Z,97845.53
2023-05-25T20:39:19.464Z,97842.72
2023-05-25T20:41:48.999Z,97848.44
2023-05-25T20:44:17.279Z,97844.56
2023-05-25T20:46:45.469Z,97843.66
2023-05-25T20:49:13.707Z,97844.19
2023-05-25T20:51:44.473Z,97843.66
2023-05-25T20:54:12.639Z,97836.97
2023-05-25T20:56:40.941Z,97844.50
2023-05-25T20:59:10.657Z,97849.31
2023-05-25T21:01:39.373Z,97848.06
2023-05-25T21:04:07.806Z,97845.88
2023-05-25T21:06:36.499Z,97845.94
2023-05-25T21:09:05.067Z,97842.31
2023-05-25T21:11:33.242Z,97839.75
2023-05-25T21:14:02.147Z,97843.16
2023-05-25T21:16:31.974Z,97846.34
2023-05-25T21:19:00.156Z,97845.50
2023-05-25T21:21:29.136Z,97848.28
2023-05-25T21:23:57.305Z,97846.25
2023-05-25T21:26:26.115Z,97859.22
2023-05-25T21:28:54.385Z,97858.22
2023-05-25T21:31:22.802Z,97853.63
2023-05-25T21:33:53.211Z,97854.44
2023-05-25T21:36:21.467Z,97854.09
2023-05-25T21:38:49.683Z,97849.69
2023-05-25T21:41:17.949Z,97861.97
2023-05-25T21:43:46.122Z,97860.72
2023-05-25T21:46:14.263Z,97864.97
2023-05-25T21:48:42.435Z,97860.72
2023-05-25T21:51:12.053Z,97852.31
2023-05-25T21:53:40.250Z,97860.69
2023-05-25T21:56:08.419Z,97865.88
2023-05-25T21:58:36.579Z,97864.88
2023-05-25T22:01:04.912Z,97868.13
2023-05-25T22:03:33.103Z,97859.69
2023-05-25T22:06:01.303Z,97868.16
2023-05-25T22:08:31.034Z,97863.41
2023-05-25T22:10:59.331Z,97863.19
2023-05-25T22:13:27.620Z,97867.88
2023-05-25T22:15:56.071Z,97867.88
2023-05-25T22:18:24.355Z,97858.97
2023-05-25T22:20:52.785Z,97866.88
2023-05-25T22:23:21.141Z,97872.31
2023-05-25T22:25:50.934Z,97871.78
2023-05-25T22:28:19.220Z,97864.66
2023-05-25T22:30:47.650Z,97859.59
2023-05-25T22:33:16.044Z,97857.34
2023-05-25T22:35:44.501Z,97858.81
2023-05-25T22:38:12.938Z,97851.06
2023-05-25T22:40:41.240Z,97851.53
2023-05-25T22:43:12.830Z,97845.78
2023-05-25T22:45:41.597Z,97847.91
2023-05-25T22:48:09.982Z,97852.06
2023-05-25T22:50:38.386Z,97850.97
2023-05-25T22:53:06.673Z,97852.34
2023-05-25T22:55:34.980Z,97848.72
2023-05-25T22:58:03.255Z,97843.22
2023-05-25T23:00:32.981Z,97846.59
2023-05-25T23:03:03.257Z,97843.69
2023-05-25T23:05:32.679Z,97848.38
2023-05-25T23:08:01.033Z,97848.00
2023-05-25T23:10:29.348Z,97845.63
2023-05-25T23:12:57.635Z,97850.50
2023-05-25T23:15:25.956Z,97847.81
2023-05-25T23:17:55.696Z,97847.09
2023-05-25T23:20:24.254Z,97850.00
2023-05-25T23:22:52.596Z,97850.56
2023-05-25T23:25:21.094Z,97850.78
2023-05-25T23:27:49.463Z,97852.16
2023-05-25T23:30:18.062Z,97847.09
2023-05-25T23:32:46.453Z,97846.72
2023-05-25T23:35:16.413Z,97851.44
2023-05-25T23:37:44.936Z,97853.81
2023-05-25T23:40:13.423Z,97849.59
2023-05-25T23:42:44.836Z,97847.94
2023-05-25T23:45:13.713Z,97840.47
2023-05-25T23:47:42.263Z,97847.63
2023-05-25T23:50:11.662Z,97845.47
2023-05-25T23:52:41.584Z,97850.19
2023-05-25T23:55:09.983Z,97855.63
2023-05-25T23:57:38.240Z,97846.81
